createdAt,value
2022-10-28T00:01:11.463Z,6.00
2022-10-28T00:03:40.315Z,6.60
2022-10-28T00:06:12.519Z,6.72
2022-10-28T00:08:39.156Z,6.25
2022-10-28T00:11:20.423Z,7.28
2022-10-28T00:13:46.928Z,6.70
2022-10-28T00:16:18.403Z,6.45
2022-10-28T00:18:45.375Z,5.88
2022-10-28T00:21:15.244Z,7.00
2022-10-28T00:23:41.944Z,6.03
2022-10-28T00:26:09.755Z,7.13
2022-10-28T00:28:40.728Z,6.95
2022-10-28T00:31:08.836Z,6.72
2022-10-28T00:33:35.245Z,6.80
2022-10-28T00:36:08.711Z,6.40
2022-10-28T00:38:35.112Z,6.60
2022-10-28T00:41:01.455Z,7.60
2022-10-28T00:43:42.161Z,5.63
2022-10-28T00:46:18.397Z,5.93
2022-10-28T00:48:50.754Z,6.43
2022-10-28T00:51:19.315Z,7.15
2022-10-28T00:53:48.119Z,7.40
2022-10-28T00:56:16.995Z,6.70
2022-10-28T00:58:46.290Z,7.55
2022-10-28T01:01:12.947Z,7.57
2022-10-28T01:03:39.442Z,7.68
2022-10-28T01:06:07.109Z,8.35
2022-10-28T01:08:33.526Z,7.40
2022-10-28T01:11:17.643Z,8.48
2022-10-28T01:14:02.406Z,7.57
2022-10-28T01:16:56.530Z,6.80
2022-10-28T01:19:55.094Z,7.05
2022-10-28T01:22:32.375Z,7.35
2022-10-28T01:25:23.586Z,6.43
2022-10-28T01:28:06.937Z,6.87
2022-10-28T01:31:01.262Z,7.38
2022-10-28T01:33:39.134Z,7.22
2022-10-28T01:36:17.788Z,7.40
2022-10-28T01:38:53.246Z,7.45
2022-10-28T01:41:44.863Z,7.00
2022-10-28T01:44:24.340Z,6.72
2022-10-28T01:47:09.984Z,7.57
2022-10-28T01:49:47.386Z,6.55
2022-10-28T01:52:18.142Z,7.00
2022-10-28T01:54:48.297Z,7.15
2022-10-28T01:57:15.963Z,6.95
2022-10-28T01:59:45.137Z,7.20
2022-10-28T02:02:11.470Z,6.72
2022-10-28T02:04:37.804Z,7.30
2022-10-28T02:07:04.785Z,7.18
2022-10-28T02:09:49.446Z,6.72
2022-10-28T02:12:24.815Z,6.93
2022-10-28T02:15:16.168Z,6.13
2022-10-28T02:18:12.987Z,7.07
2022-10-28T02:21:11.694Z,6.93
2022-10-28T02:23:45.898Z,6.45
2022-10-28T02:26:19.595Z,8.77
2022-10-28T02:29:04.093Z,7.18
2022-10-28T02:31:40.717Z,5.65
2022-10-28T02:34:12.877Z,6.40
2022-10-28T02:36:45.605Z,6.97
2022-10-28T02:39:12.240Z,7.28
2022-10-28T02:41:59.342Z,8.05
2022-10-28T02:44:31.273Z,7.28
2022-10-28T02:47:02.159Z,7.05
2022-10-28T02:49:32.042Z,6.40
2022-10-28T02:52:02.675Z,6.22
2022-10-28T02:54:42.978Z,6.70
2022-10-28T02:57:30.061Z,6.80
2022-10-28T02:59:58.812Z,6.00
2022-10-28T03:02:26.635Z,7.72
2022-10-28T03:04:53.350Z,7.45
2022-10-28T03:07:20.302Z,5.78
2022-10-28T03:09:46.613Z,6.55
2022-10-28T03:12:13.068Z,6.03
2022-10-28T03:14:39.522Z,6.32
2022-10-28T03:17:07.618Z,6.90
2022-10-28T03:19:34.191Z,6.85
2022-10-28T03:22:00.554Z,6.65
2022-10-28T03:24:27.115Z,6.88
2022-10-28T03:26:54.633Z,7.03
2022-10-28T03:29:21.164Z,6.80
2022-10-28T03:31:47.557Z,7.03
2022-10-28T03:34:13.875Z,6.13
2022-10-28T03:36:40.316Z,7.55
2022-10-28T03:39:06.806Z,6.68
2022-10-28T03:41:33.218Z,5.65
2022-10-28T03:43:59.748Z,7.18
2022-10-28T03:46:26.174Z,7.07
2022-10-28T03:48:52.836Z,7.80
2022-10-28T03:51:25.503Z,6.55
2022-10-28T03:53:51.864Z,6.95
2022-10-28T03:56:18.971Z,5.80
2022-10-28T04:01:22.280Z,6.75
2022-10-28T04:03:48.709Z,5.90
2022-10-28T04:06:15.088Z,5.70
2022-10-28T04:08:41.488Z,6.70
2022-10-28T04:11:08.159Z,6.82
2022-10-28T04:13:34.680Z,5.90
2022-10-28T04:16:01.920Z,6.05
2022-10-28T04:18:28.350Z,6.95
2022-10-28T04:20:54.686Z,7.93
2022-10-28T04:23:21.108Z,7.30
2022-10-28T04:25:51.233Z,7.57
2022-10-28T04:28:17.558Z,6.93
2022-10-28T04:30:46.891Z,7.10
2022-10-28T04:33:13.676Z,6.50
2022-10-28T04:35:42.714Z,6.68
2022-10-28T04:38:12.036Z,6.07
2022-10-28T04:40:38.384Z,6.50
2022-10-28T04:43:09.753Z,7.30
2022-10-28T04:45:37.483Z,7.43
2022-10-28T04:48:04.100Z,6.68
2022-10-28T04:50:31.527Z,6.85
2022-10-28T04:52:57.860Z,6.80
2022-10-28T04:55:24.224Z,7.10
2022-10-28T04:57:58.722Z,6.85
2022-10-28T05:00:29.318Z,6.53
2022-10-28T05:02:56.202Z,5.53
2022-10-28T05:05:22.868Z,7.28
2022-10-28T05:07:49.228Z,6.28
2022-10-28T05:10:17.860Z,7.22
2022-10-28T05:12:45.826Z,6.07
2022-10-28T05:15:13.866Z,6.63
2022-10-28T05:17:41.408Z,6.45
2022-10-28T05:20:08.751Z,6.80
2022-10-28T05:22:35.133Z,7.05
2022-10-28T05:25:01.684Z,6.45
2022-10-28T05:27:28.039Z,6.53
2022-10-28T05:29:54.357Z,6.45
2022-10-28T05:32:20.766Z,7.40
2022-10-28T05:34:47.093Z,7.30
2022-10-28T05:37:13.418Z,6.97
2022-10-28T05:39:39.753Z,6.60
2022-10-28T05:42:06.091Z,7.32
2022-10-28T05:44:32.427Z,6.38
2022-10-28T05:46:58.840Z,6.82
2022-10-28T05:49:25.174Z,7.30
2022-10-28T05:51:51.571Z,6.75
2022-10-28T05:54:18.063Z,7.85
2022-10-28T05:56:44.482Z,6.55
2022-10-28T05:59:10.809Z,6.38
2022-10-28T06:01:37.268Z,6.82
2022-10-28T06:04:04.691Z,7.70
2022-10-28T06:06:31.189Z,6.25
2022-10-28T06:08:58.019Z,7.00
2022-10-28T06:11:23.057Z,8.07
2022-10-28T06:13:49.466Z,7.32
2022-10-28T06:16:16.088Z,7.88
2022-10-28T06:18:42.511Z,7.13
2022-10-28T06:21:08.841Z,7.75
2022-10-28T06:23:35.212Z,7.03
2022-10-28T06:26:03.223Z,7.22
2022-10-28T06:28:30.209Z,6.22
2022-10-28T06:31:06.113Z,6.75
2022-10-28T06:33:33.243Z,6.53
2022-10-28T06:36:00.338Z,7.75
2022-10-28T06:38:27.961Z,6.45
2022-10-28T06:40:57.724Z,6.95
2022-10-28T06:43:24.150Z,7.15
2022-10-28T06:45:55.613Z,7.35
2022-10-28T06:48:24.112Z,6.15
2022-10-28T06:50:50.530Z,6.03
2022-10-28T06:53:16.938Z,6.43
2022-10-28T06:55:48.527Z,6.78
2022-10-28T06:58:15.200Z,6.28
2022-10-28T07:00:41.531Z,7.60
2022-10-28T07:03:09.662Z,6.93
2022-10-28T07:05:36.086Z,7.03
2022-10-28T07:08:02.458Z,6.63
2022-10-28T07:10:28.859Z,7.05
2022-10-28T07:12:55.723Z,7.10
2022-10-28T07:15:22.321Z,7.57
2022-10-28T07:17:53.623Z,7.38
2022-10-28T07:20:20.375Z,6.35
2022-10-28T07:22:46.675Z,6.45
2022-10-28T07:25:13.240Z,6.70
2022-10-28T07:27:39.727Z,6.82
2022-10-28T07:30:06.581Z,5.80
2022-10-28T07:32:33.547Z,6.20
2022-10-28T07:34:59.883Z,6.88
2022-10-28T07:37:26.215Z,6.40
2022-10-28T07:39:52.600Z,6.55
2022-10-28T07:42:18.960Z,7.28
2022-10-28T07:44:45.300Z,6.30
2022-10-28T07:47:11.635Z,5.22
2022-10-28T07:49:37.960Z,7.50
2022-10-28T07:52:04.479Z,6.13
2022-10-28T07:54:31.861Z,6.05
2022-10-28T07:56:58.260Z,6.13
2022-10-28T07:59:26.813Z,6.63
2022-10-28T08:01:53.973Z,5.63
2022-10-28T08:04:20.402Z,5.88
2022-10-28T08:06:48.208Z,6.38
2022-10-28T08:09:15.919Z,6.93
2022-10-28T08:11:42.323Z,5.03
2022-10-28T08:14:08.647Z,6.95
2022-10-28T08:16:34.977Z,5.63
2022-10-28T08:19:06.707Z,6.35
2022-10-28T08:21:34.140Z,5.07
2022-10-28T08:24:00.492Z,5.32
2022-10-28T08:26:26.820Z,5.70
2022-10-28T08:28:53.170Z,5.63
2022-10-28T08:31:19.511Z,5.72
2022-10-28T08:33:46.148Z,5.47
2022-10-28T08:36:16.811Z,5.72
2022-10-28T08:38:45.691Z,4.70
2022-10-28T08:41:27.374Z,5.68
2022-10-28T08:44:15.164Z,5.55
2022-10-28T08:47:03.910Z,6.00
2022-10-28T08:49:33.353Z,6.13
2022-10-28T08:52:17.054Z,4.75
2022-10-28T08:54:47.363Z,5.25
2022-10-28T08:57:20.452Z,5.22
2022-10-28T08:59:50.092Z,5.30
2022-10-28T09:02:26.060Z,5.93
2022-10-28T09:05:23.219Z,5.30
2022-10-28T09:07:50.580Z,5.60
2022-10-28T09:10:20.620Z,5.15
2022-10-28T09:13:14.856Z,5.47
2022-10-28T09:15:56.716Z,5.78
2022-10-28T09:20:58.659Z,5.68
2022-10-28T09:23:35.962Z,5.45
2022-10-28T09:26:14.332Z,4.40
2022-10-28T09:28:52.904Z,5.00
2022-10-28T09:31:47.524Z,5.00
2022-10-28T09:34:34.225Z,5.10
2022-10-28T09:37:20.599Z,5.40
2022-10-28T09:39:55.544Z,5.93
2022-10-28T09:42:32.412Z,5.32
2022-10-28T09:45:04.942Z,4.53
2022-10-28T09:47:37.308Z,5.88
2022-10-28T09:50:12.611Z,4.68
2022-10-28T09:53:18.781Z,4.63
2022-10-28T09:55:45.404Z,6.18
2022-10-28T09:58:13.298Z,5.60
2022-10-28T10:00:39.899Z,5.03
2022-10-28T10:03:06.228Z,4.78
2022-10-28T10:05:37.632Z,5.53
2022-10-28T10:10:34.251Z,5.60
2022-10-28T10:13:03.452Z,5.20
2022-10-28T10:15:35.673Z,5.22
2022-10-28T10:18:05.089Z,4.60
2022-10-28T10:21:03.785Z,4.80
2022-10-28T10:26:11.298Z,5.80
2022-10-28T10:28:43.732Z,5.35
2022-10-28T10:31:21.242Z,6.70
2022-10-28T10:33:53.836Z,5.75
2022-10-28T10:36:23.713Z,4.53
2022-10-28T10:38:55.078Z,5.35
2022-10-28T10:44:29.076Z,5.05
2022-10-28T10:46:55.373Z,4.85
2022-10-28T10:49:21.718Z,5.28
2022-10-28T10:51:52.846Z,4.15
2022-10-28T10:54:20.418Z,5.43
2022-10-28T10:56:47.055Z,5.45
2022-10-28T10:59:31.936Z,5.65
2022-10-28T11:02:00.053Z,5.90
2022-10-28T11:04:28.355Z,4.70
2022-10-28T11:06:57.735Z,4.88
2022-10-28T11:09:39.543Z,5.05
2022-10-28T11:12:29.232Z,4.57
2022-10-28T11:15:00.876Z,3.95
2022-10-28T11:20:25.325Z,5.43
2022-10-28T11:23:20.495Z,4.65
2022-10-28T11:25:50.466Z,4.65
2022-10-28T11:28:35.378Z,5.28
2022-10-28T11:31:20.712Z,3.92
2022-10-28T11:34:13.329Z,5.07
2022-10-28T11:37:09.890Z,4.28
2022-10-28T11:40:00.056Z,5.10
2022-10-28T11:42:47.920Z,5.25
2022-10-28T11:45:29.054Z,4.90
2022-10-28T11:48:18.215Z,5.18
2022-10-28T11:51:19.619Z,4.50
2022-10-28T11:54:12.237Z,4.55
2022-10-28T11:57:18.657Z,4.55
2022-10-28T12:00:00.926Z,5.03
2022-10-28T12:03:15.603Z,4.88
2022-10-28T12:05:54.847Z,5.35
2022-10-28T12:08:33.855Z,4.40
2022-10-28T12:11:21.159Z,5.72
2022-10-28T12:13:50.459Z,4.93
2022-10-28T12:16:28.912Z,4.97
2022-10-28T12:19:15.076Z,4.72
2022-10-28T12:21:51.840Z,5.43
2022-10-28T12:24:23.181Z,5.40
2022-10-28T12:26:54.963Z,5.95
2022-10-28T12:29:25.896Z,5.05
2022-10-28T12:31:58.731Z,5.20
2022-10-28T12:34:34.048Z,4.50
2022-10-28T12:37:08.459Z,6.10
2022-10-28T12:40:00.469Z,4.00
2022-10-28T12:42:51.844Z,4.78
2022-10-28T12:45:20.704Z,5.20
2022-10-28T12:48:01.364Z,5.40
2022-10-28T12:50:38.083Z,5.22
2022-10-28T12:53:04.376Z,5.05
2022-10-28T12:55:46.835Z,5.68
2022-10-28T12:58:20.383Z,3.97
2022-10-28T13:00:52.940Z,5.50
2022-10-28T13:03:19.303Z,5.80
2022-10-28T13:05:48.599Z,5.00
2022-10-28T13:08:45.420Z,5.18
2022-10-28T13:11:20.897Z,6.00
2022-10-28T13:13:59.118Z,5.32
2022-10-28T13:16:55.214Z,5.28
2022-10-28T13:19:35.667Z,5.55
2022-10-28T13:22:19.238Z,5.57
2022-10-28T13:25:28.933Z,5.03
2022-10-28T13:27:59.939Z,4.78
2022-10-28T13:30:28.227Z,4.78
2022-10-28T13:33:23.876Z,5.00
2022-10-28T13:35:50.937Z,5.43
2022-10-28T13:38:22.825Z,5.35
2022-10-28T13:41:01.305Z,4.65
2022-10-28T13:43:49.388Z,5.32
2022-10-28T13:46:57.131Z,5.22
2022-10-28T13:49:28.753Z,4.43
2022-10-28T13:54:44.682Z,5.57
2022-10-28T13:57:24.995Z,5.18
2022-10-28T13:59:56.447Z,5.93
2022-10-28T14:02:36.615Z,4.88
2022-10-28T14:05:07.587Z,5.38
2022-10-28T14:07:36.597Z,4.10
2022-10-28T14:10:20.690Z,5.10
2022-10-28T14:15:50.796Z,4.55
2022-10-28T14:21:03.971Z,5.72
2022-10-28T14:23:30.903Z,4.72
2022-10-28T14:26:02.387Z,4.45
2022-10-28T14:28:32.958Z,5.88
2022-10-28T14:31:10.135Z,4.60
2022-10-28T14:33:56.693Z,3.95
2022-10-28T14:36:47.123Z,5.03
2022-10-28T14:39:35.708Z,4.95
2022-10-28T14:42:40.662Z,4.28
2022-10-28T14:45:20.868Z,5.32
2022-10-28T14:48:20.437Z,4.97
2022-10-28T14:50:49.627Z,4.57
2022-10-28T14:53:25.459Z,5.78
2022-10-28T14:55:59.799Z,4.65
2022-10-28T14:58:30.932Z,4.90
2022-10-28T15:01:24.125Z,5.15
2022-10-28T15:03:54.261Z,5.18
2022-10-28T15:06:28.217Z,4.95
2022-10-28T15:08:56.533Z,5.22
2022-10-28T15:11:23.478Z,4.57
2022-10-28T15:13:53.027Z,4.45
2022-10-28T15:16:22.226Z,4.93
2022-10-28T15:18:52.247Z,4.07
2022-10-28T15:21:22.503Z,4.20
2022-10-28T15:24:02.239Z,5.57
2022-10-28T15:26:28.775Z,3.42
2022-10-28T15:28:55.687Z,5.22
2022-10-28T15:31:23.311Z,4.97
2022-10-28T15:33:52.152Z,4.32
2022-10-28T15:36:24.402Z,3.95
2022-10-28T15:39:16.587Z,4.95
2022-10-28T15:41:49.384Z,4.82
2022-10-28T15:44:34.572Z,5.00
2022-10-28T15:47:14.661Z,3.92
2022-10-28T15:49:41.293Z,4.53
2022-10-28T15:52:35.491Z,4.32
2022-10-28T15:55:30.592Z,3.72
2022-10-28T15:58:13.659Z,4.43
2022-10-28T16:00:58.484Z,4.85
2022-10-28T16:03:46.170Z,4.10
2022-10-28T16:06:25.724Z,4.45
2022-10-28T16:09:00.699Z,4.15
2022-10-28T16:11:27.661Z,4.32
2022-10-28T16:13:54.139Z,3.97
2022-10-28T16:16:30.675Z,4.10
2022-10-28T16:19:28.603Z,4.03
2022-10-28T16:21:55.371Z,4.40
2022-10-28T16:24:21.961Z,3.65
2022-10-28T16:26:48.346Z,8.35
2022-10-28T16:29:14.686Z,5.40
2022-10-28T16:31:41.468Z,3.50
2022-10-28T16:34:14.375Z,4.95
2022-10-28T16:36:40.725Z,4.53
2022-10-28T16:39:13.132Z,3.65
2022-10-28T16:41:40.822Z,4.30
2022-10-28T16:44:16.861Z,6.00
2022-10-28T16:46:43.321Z,5.45
2022-10-28T16:49:09.625Z,4.30
2022-10-28T16:51:36.267Z,3.85
2022-10-28T16:54:02.647Z,4.00
2022-10-28T16:56:29.012Z,5.00
2022-10-28T16:58:58.151Z,4.47
2022-10-28T17:01:24.572Z,4.03
2022-10-28T17:03:50.974Z,3.83
2022-10-28T17:06:17.462Z,4.45
2022-10-28T17:11:33.227Z,4.22
2022-10-28T17:13:59.685Z,4.90
2022-10-28T17:16:26.020Z,4.57
2022-10-28T17:18:52.342Z,4.72
2022-10-28T17:21:18.701Z,5.75
2022-10-28T17:23:45.108Z,5.45
2022-10-28T17:26:11.555Z,4.78
2022-10-28T17:28:37.873Z,4.53
2022-10-28T17:31:06.124Z,4.65
2022-10-28T17:33:33.263Z,5.32
2022-10-28T17:36:07.829Z,4.38
2022-10-28T17:38:34.420Z,3.83
2022-10-28T17:41:00.728Z,4.70
2022-10-28T17:43:27.197Z,4.05
2022-10-28T17:46:03.340Z,3.15
2022-10-28T17:48:29.755Z,6.95
2022-10-28T17:50:57.241Z,4.22
2022-10-28T17:53:26.716Z,3.95
2022-10-28T17:56:00.372Z,5.95
2022-10-28T17:58:27.436Z,4.50
2022-10-28T18:00:58.142Z,4.60
2022-10-28T18:03:24.785Z,4.85
2022-10-28T18:05:51.572Z,4.35
2022-10-28T18:08:18.079Z,5.38
2022-10-28T18:10:55.559Z,6.22
2022-10-28T18:13:27.249Z,4.60
2022-10-28T18:18:19.973Z,4.07
2022-10-28T18:20:53.333Z,5.30
2022-10-28T18:23:19.866Z,5.85
2022-10-28T18:25:46.304Z,3.75
2022-10-28T18:28:12.653Z,4.97
2022-10-28T18:30:38.958Z,4.47
2022-10-28T18:33:05.272Z,5.35
2022-10-28T18:35:34.364Z,5.25
2022-10-28T18:38:01.242Z,4.15
2022-10-28T18:40:27.575Z,5.20
2022-10-28T18:42:53.906Z,4.70
2022-10-28T18:45:20.293Z,3.92
2022-10-28T18:47:46.960Z,4.55
2022-10-28T18:50:13.275Z,5.68
2022-10-28T18:52:39.616Z,4.68
2022-10-28T18:55:06.535Z,5.03
2022-10-28T18:57:35.457Z,4.40
2022-10-28T19:00:18.743Z,4.80
2022-10-28T19:02:47.820Z,4.82
2022-10-28T19:05:14.569Z,6.07
2022-10-28T19:07:40.898Z,4.38
2022-10-28T19:10:07.472Z,4.63
2022-10-28T19:12:33.796Z,4.70
2022-10-28T19:15:00.191Z,4.95
2022-10-28T19:17:26.536Z,4.00
2022-10-28T19:19:52.859Z,4.85
2022-10-28T19:22:19.284Z,5.18
2022-10-28T19:24:45.725Z,5.40
2022-10-28T19:27:12.165Z,4.05
2022-10-28T19:29:38.608Z,4.20
2022-10-28T19:32:05.275Z,3.33
2022-10-28T19:34:32.456Z,4.85
2022-10-28T19:36:58.775Z,4.53
2022-10-28T19:39:25.183Z,5.20
2022-10-28T19:41:53.074Z,5.03
2022-10-28T19:44:19.373Z,4.32
2022-10-28T19:46:45.895Z,4.88
2022-10-28T19:49:15.185Z,4.88
2022-10-28T19:51:41.642Z,5.38
2022-10-28T19:54:11.841Z,5.75
2022-10-28T19:56:39.129Z,4.60
2022-10-28T19:59:06.576Z,5.53
2022-10-28T20:01:36.035Z,5.20
2022-10-28T20:04:02.911Z,4.85
2022-10-28T20:06:34.599Z,4.82
2022-10-28T20:09:01.343Z,3.88
2022-10-28T20:11:31.578Z,3.65
2022-10-28T20:14:05.606Z,4.97
2022-10-28T20:16:33.502Z,4.65
2022-10-28T20:19:00.306Z,4.05
2022-10-28T20:21:28.819Z,5.15
2022-10-28T20:23:56.498Z,4.35
2022-10-28T20:26:27.796Z,4.43
2022-10-28T20:28:54.756Z,4.85
2022-10-28T20:31:23.678Z,4.68
2022-10-28T20:33:55.173Z,4.50
2022-10-28T20:36:31.268Z,6.53
2022-10-28T20:39:01.743Z,4.43
2022-10-28T20:41:36.070Z,4.85
2022-10-28T20:44:02.988Z,4.55
2022-10-28T20:46:29.987Z,4.60
2022-10-28T20:48:56.862Z,4.78
2022-10-28T20:51:25.344Z,4.65
2022-10-28T20:53:51.873Z,4.53
2022-10-28T20:56:23.913Z,4.13
2022-10-28T20:58:50.416Z,6.22
2022-10-28T21:01:22.345Z,4.55
2022-10-28T21:03:49.710Z,5.70
2022-10-28T21:06:17.014Z,4.82
2022-10-28T21:08:44.092Z,5.13
2022-10-28T21:11:13.425Z,3.83
2022-10-28T21:13:40.294Z,5.03
2022-10-28T21:16:09.140Z,4.53
2022-10-28T21:18:37.375Z,5.13
2022-10-28T21:21:04.782Z,5.30
2022-10-28T21:23:31.183Z,4.63
2022-10-28T21:26:00.123Z,5.32
2022-10-28T21:28:28.586Z,4.97
2022-10-28T21:31:01.629Z,5.65
2022-10-28T21:33:28.413Z,4.43
2022-10-28T21:35:59.535Z,5.57
2022-10-28T21:38:27.485Z,5.68
2022-10-28T21:41:13.791Z,5.28
2022-10-28T21:43:42.980Z,6.40
2022-10-28T21:46:10.565Z,4.50
2022-10-28T21:48:37.796Z,4.63
2022-10-28T21:51:09.939Z,5.05
2022-10-28T21:53:40.318Z,5.18
2022-10-28T21:56:11.229Z,5.50
2022-10-28T21:58:42.205Z,5.80
2022-10-28T22:01:14.478Z,5.50
2022-10-28T22:03:43.886Z,4.82
2022-10-28T22:06:10.419Z,4.72
2022-10-28T22:08:36.957Z,5.55
2022-10-28T22:11:10.940Z,5.30
2022-10-28T22:13:37.279Z,6.00
2022-10-28T22:16:06.499Z,4.88
2022-10-28T22:18:34.393Z,4.90
2022-10-28T22:21:12.203Z,4.53
2022-10-28T22:23:39.452Z,6.60
2022-10-28T22:26:10.824Z,4.10
2022-10-28T22:28:37.429Z,4.95
2022-10-28T22:31:07.089Z,5.43
2022-10-28T22:33:33.837Z,4.35
2022-10-28T22:36:06.402Z,4.50
2022-10-28T22:38:33.317Z,4.93
2022-10-28T22:41:08.137Z,4.60
2022-10-28T22:43:34.532Z,5.10
2022-10-28T22:46:01.327Z,5.18
2022-10-28T22:48:27.778Z,4.95
2022-10-28T22:50:54.440Z,5.47
2022-10-28T22:53:21.118Z,6.75
2022-10-28T22:55:47.791Z,6.20
2022-10-28T22:58:16.131Z,5.28
2022-10-28T23:00:42.955Z,6.10
2022-10-28T23:03:09.335Z,5.22
2022-10-28T23:05:35.740Z,5.03
2022-10-28T23:08:02.091Z,4.50
2022-10-28T23:10:29.260Z,4.53
2022-10-28T23:13:00.084Z,6.18
2022-10-28T23:15:27.521Z,4.65
2022-10-28T23:17:54.322Z,5.38
2022-10-28T23:20:22.508Z,4.03
2022-10-28T23:22:49.168Z,3.85
2022-10-28T23:25:15.848Z,4.63
2022-10-28T23:27:43.569Z,4.80
2022-10-28T23:30:12.213Z,5.95
2022-10-28T23:32:39.620Z,5.25
2022-10-28T23:35:07.156Z,5.22
2022-10-28T23:37:33.755Z,4.00
2022-10-28T23:40:00.218Z,4.70
2022-10-28T23:42:26.648Z,3.80
2022-10-28T23:44:53.018Z,4.55
2022-10-28T23:47:19.387Z,4.60
2022-10-28T23:49:45.779Z,4.30
2022-10-28T23:52:12.317Z,4.57
2022-10-28T23:54:41.204Z,5.88
2022-10-28T23:57:08.291Z,5.47
2022-10-28T23:59:34.688Z,4.57
